sensor_id;sensor_type;location;lat;lon;timestamp;temperature;humidity
11152;DHT22;5630;49.342;10.802;2023-05-19T00:00:55;10.80;99.90
11152;DHT22;5630;49.342;10.802;2023-05-19T00:03:21;10.70;99.90
11152;DHT22;5630;49.342;10.802;2023-05-19T00:05:47;10.70;99.90
11152;DHT22;5630;49.342;10.802;2023-05-19T00:08:15;10.70;99.90
11152;DHT22;5630;49.342;10.802;2023-05-19T00:10:41;10.70;99.90
11152;DHT22;5630;49.342;10.802;2023-05-19T00:13:07;10.60;99.90
11152;DHT22;5630;49.342;10.802;2023-05-19T00:15:33;10.60;99.90
11152;DHT22;5630;49.342;10.802;2023-05-19T00:17:58;10.60;99.90
11152;DHT22;5630;49.342;10.802;2023-05-19T00:20:24;10.60;99.90
11152;DHT22;5630;49.342;10.802;2023-05-19T00:22:50;10.60;99.90
11152;DHT22;5630;49.342;10.802;2023-05-19T00:25:15;10.60;99.90
11152;DHT22;5630;49.342;10.802;2023-05-19T00:27:41;10.50;99.90
11152;DHT22;5630;49.342;10.802;2023-05-19T00:30:07;10.50;99.90
11152;DHT22;5630;49.342;10.802;2023-05-19T00:32:33;10.50;99.90
11152;DHT22;5630;49.342;10.802;2023-05-19T00:34:58;10.50;99.90
11152;DHT22;5630;49.342;10.802;2023-05-19T00:37:24;10.50;99.90
11152;DHT22;5630;49.342;10.802;2023-05-19T00:39:50;10.50;99.90
11152;DHT22;5630;49.342;10.802;2023-05-19T00:42:16;10.50;99.90
11152;DHT22;5630;49.342;10.802;2023-05-19T00:44:41;10.40;99.90
11152;DHT22;5630;49.342;10.802;2023-05-19T00:47:07;10.50;99.90
11152;DHT22;5630;49.342;10.802;2023-05-19T00:49:33;10.40;99.90
11152;DHT22;5630;49.342;10.802;2023-05-19T00:52:00;10.50;99.90
11152;DHT22;5630;49.342;10.802;2023-05-19T00:54:27;10.40;99.90
11152;DHT22;5630;49.342;10.802;2023-05-19T00:56:53;10.50;99.90
11152;DHT22;5630;49.342;10.802;2023-05-19T00:59:19;10.40;99.90
11152;DHT22;5630;49.342;10.802;2023-05-19T01:01:45;10.40;99.90
11152;DHT22;5630;49.342;10.802;2023-05-19T01:04:20;10.40;99.90
11152;DHT22;5630;49.342;10.802;2023-05-19T01:06:47;10.40;99.90
11152;DHT22;5630;49.342;10.802;2023-05-19T01:09:14;10.40;99.90
11152;DHT22;5630;49.342;10.802;2023-05-19T01:11:40;10.50;99.90
11152;DHT22;5630;49.342;10.802;2023-05-19T01:14:06;10.50;99.90
11152;DHT22;5630;49.342;10.802;2023-05-19T01:16:39;10.40;99.90
11152;DHT22;5630;49.342;10.802;2023-05-19T01:30:53;10.30;99.90
11152;DHT22;5630;49.342;10.802;2023-05-19T01:33:21;10.30;99.90
11152;DHT22;5630;49.342;10.802;2023-05-19T01:35:48;10.30;99.90
11152;DHT22;5630;49.342;10.802;2023-05-19T01:38:19;10.30;99.90
11152;DHT22;5630;49.342;10.802;2023-05-19T01:40:46;10.30;99.90
11152;DHT22;5630;49.342;10.802;2023-05-19T01:43:17;10.30;99.90
11152;DHT22;5630;49.342;10.802;2023-05-19T01:45:43;10.30;99.90
11152;DHT22;5630;49.342;10.802;2023-05-19T01:48:09;10.30;99.90
11152;DHT22;5630;49.342;10.802;2023-05-19T01:50:36;10.30;99.90
11152;DHT22;5630;49.342;10.802;2023-05-19T01:53:02;10.30;99.90
11152;DHT22;5630;49.342;10.802;2023-05-19T01:55:28;10.20;99.90
11152;DHT22;5630;49.342;10.802;2023-05-19T02:00:52;10.20;99.90
11152;DHT22;5630;49.342;10.802;2023-05-19T02:03:28;10.20;99.90
11152;DHT22;5630;49.342;10.802;2023-05-19T02:11:01;10.30;99.90
11152;DHT22;5630;49.342;10.802;2023-05-19T02:13:30;10.30;99.90
11152;DHT22;5630;49.342;10.802;2023-05-19T02:16:03;10.30;99.90
11152;DHT22;5630;49.342;10.802;2023-05-19T02:18:30;10.30;99.90
11152;DHT22;5630;49.342;10.802;2023-05-19T02:20:57;10.30;99.90
11152;DHT22;5630;49.342;10.802;2023-05-19T02:23:23;10.30;99.90
11152;DHT22;5630;49.342;10.802;2023-05-19T02:25:49;10.30;99.90
11152;DHT22;5630;49.342;10.802;2023-05-19T02:28:14;10.30;99.90
11152;DHT22;5630;49.342;10.802;2023-05-19T02:30:40;10.20;99.90
11152;DHT22;5630;49.342;10.802;2023-05-19T02:33:06;10.20;99.90
11152;DHT22;5630;49.342;10.802;2023-05-19T02:35:31;10.10;99.90
11152;DHT22;5630;49.342;10.802;2023-05-19T02:37:58;10.10;99.90
11152;DHT22;5630;49.342;10.802;2023-05-19T02:40:23;10.10;99.90
11152;DHT22;5630;49.342;10.802;2023-05-19T02:42:49;10.10;99.90
11152;DHT22;5630;49.342;10.802;2023-05-19T02:45:15;10.00;99.90
11152;DHT22;5630;49.342;10.802;2023-05-19T02:47:40;10.00;99.90
11152;DHT22;5630;49.342;10.802;2023-05-19T02:50:06;10.00;99.90
11152;DHT22;5630;49.342;10.802;2023-05-19T02:52:32;10.00;99.90
11152;DHT22;5630;49.342;10.802;2023-05-19T02:54:58;9.90;99.90
11152;DHT22;5630;49.342;10.802;2023-05-19T02:57:24;9.90;99.90
11152;DHT22;5630;49.342;10.802;2023-05-19T02:59:51;9.80;99.90
11152;DHT22;5630;49.342;10.802;2023-05-19T03:02:16;9.80;99.90
11152;DHT22;5630;49.342;10.802;2023-05-19T03:04:42;9.80;99.90
11152;DHT22;5630;49.342;10.802;2023-05-19T03:07:08;9.80;99.90
11152;DHT22;5630;49.342;10.802;2023-05-19T03:09:36;9.70;99.90
11152;DHT22;5630;49.342;10.802;2023-05-19T03:12:01;9.70;99.90
11152;DHT22;5630;49.342;10.802;2023-05-19T03:14:29;9.60;99.90
11152;DHT22;5630;49.342;10.802;2023-05-19T03:16:54;9.60;99.90
11152;DHT22;5630;49.342;10.802;2023-05-19T03:19:20;9.60;99.90
11152;DHT22;5630;49.342;10.802;2023-05-19T03:21:46;9.60;99.90
11152;DHT22;5630;49.342;10.802;2023-05-19T03:24:12;9.50;99.90
11152;DHT22;5630;49.342;10.802;2023-05-19T03:26:37;9.50;99.90
11152;DHT22;5630;49.342;10.802;2023-05-19T03:29:03;9.50;99.90
11152;DHT22;5630;49.342;10.802;2023-05-19T03:31:28;9.40;99.90
11152;DHT22;5630;49.342;10.802;2023-05-19T03:33:55;9.50;99.90
11152;DHT22;5630;49.342;10.802;2023-05-19T03:36:22;9.50;99.90
11152;DHT22;5630;49.342;10.802;2023-05-19T03:38:48;9.50;99.90
11152;DHT22;5630;49.342;10.802;2023-05-19T03:41:14;9.50;99.90
11152;DHT22;5630;49.342;10.802;2023-05-19T03:43:39;9.50;99.90
11152;DHT22;5630;49.342;10.802;2023-05-19T03:46:05;9.50;99.90
11152;DHT22;5630;49.342;10.802;2023-05-19T03:48:30;9.50;99.90
11152;DHT22;5630;49.342;10.802;2023-05-19T03:50:56;9.50;99.90
11152;DHT22;5630;49.342;10.802;2023-05-19T03:53:22;9.50;99.90
11152;DHT22;5630;49.342;10.802;2023-05-19T03:55:48;9.50;99.90
11152;DHT22;5630;49.342;10.802;2023-05-19T03:58:15;9.50;99.90
11152;DHT22;5630;49.342;10.802;2023-05-19T04:00:41;9.40;99.90
11152;DHT22;5630;49.342;10.802;2023-05-19T04:03:06;9.50;99.90
11152;DHT22;5630;49.342;10.802;2023-05-19T04:05:32;9.40;99.90
11152;DHT22;5630;49.342;10.802;2023-05-19T04:07:58;9.40;99.90
11152;DHT22;5630;49.342;10.802;2023-05-19T04:10:24;9.40;99.90
11152;DHT22;5630;49.342;10.802;2023-05-19T04:12:49;9.40;99.90
11152;DHT22;5630;49.342;10.802;2023-05-19T04:15:15;9.40;99.90
11152;DHT22;5630;49.342;10.802;2023-05-19T04:17:41;9.40;99.90
11152;DHT22;5630;49.342;10.802;2023-05-19T04:20:07;9.40;99.90
11152;DHT22;5630;49.342;10.802;2023-05-19T04:22:32;9.40;99.90
11152;DHT22;5630;49.342;10.802;2023-05-19T04:24:58;9.50;99.90
11152;DHT22;5630;49.342;10.802;2023-05-19T04:27:24;9.50;99.90
11152;DHT22;5630;49.342;10.802;2023-05-19T04:29:52;9.50;99.90
11152;DHT22;5630;49.342;10.802;2023-05-19T04:32:19;9.50;99.90
11152;DHT22;5630;49.342;10.802;2023-05-19T04:34:44;9.50;99.90
11152;DHT22;5630;49.342;10.802;2023-05-19T04:37:13;9.50;99.90
11152;DHT22;5630;49.342;10.802;2023-05-19T04:39:41;9.60;99.90
11152;DHT22;5630;49.342;10.802;2023-05-19T04:42:10;9.60;99.90
11152;DHT22;5630;49.342;10.802;2023-05-19T04:44:36;9.60;99.90
11152;DHT22;5630;49.342;10.802;2023-05-19T04:47:05;9.70;99.90
11152;DHT22;5630;49.342;10.802;2023-05-19T04:49:31;9.70;99.90
11152;DHT22;5630;49.342;10.802;2023-05-19T04:51:57;9.80;99.90
11152;DHT22;5630;49.342;10.802;2023-05-19T04:54:22;9.80;99.90
11152;DHT22;5630;49.342;10.802;2023-05-19T04:56:48;9.90;99.90
11152;DHT22;5630;49.342;10.802;2023-05-19T04:59:13;10.00;99.90
11152;DHT22;5630;49.342;10.802;2023-05-19T05:01:39;10.00;99.90
11152;DHT22;5630;49.342;10.802;2023-05-19T05:04:06;10.00;99.90
11152;DHT22;5630;49.342;10.802;2023-05-19T05:06:32;10.10;99.90
11152;DHT22;5630;49.342;10.802;2023-05-19T05:08:57;10.10;99.90
11152;DHT22;5630;49.342;10.802;2023-05-19T05:11:24;10.10;99.90
11152;DHT22;5630;49.342;10.802;2023-05-19T05:13:50;10.20;99.90
11152;DHT22;5630;49.342;10.802;2023-05-19T05:16:16;10.20;99.90
11152;DHT22;5630;49.342;10.802;2023-05-19T05:18:42;10.30;99.90
11152;DHT22;5630;49.342;10.802;2023-05-19T05:21:08;10.40;99.90
11152;DHT22;5630;49.342;10.802;2023-05-19T05:23:34;10.40;99.90
11152;DHT22;5630;49.342;10.802;2023-05-19T05:26:09;10.40;99.90
11152;DHT22;5630;49.342;10.802;2023-05-19T05:28:35;10.40;99.90
11152;DHT22;5630;49.342;10.802;2023-05-19T05:31:00;10.40;99.90
11152;DHT22;5630;49.342;10.802;2023-05-19T05:33:26;10.40;99.90
11152;DHT22;5630;49.342;10.802;2023-05-19T05:35:52;10.40;99.90
11152;DHT22;5630;49.342;10.802;2023-05-19T05:38:17;10.50;99.90
11152;DHT22;5630;49.342;10.802;2023-05-19T05:40:43;11.10;99.90
11152;DHT22;5630;49.342;10.802;2023-05-19T05:43:08;11.80;99.90
11152;DHT22;5630;49.342;10.802;2023-05-19T05:45:34;12.00;99.90
11152;DHT22;5630;49.342;10.802;2023-05-19T05:47:59;12.00;99.90
11152;DHT22;5630;49.342;10.802;2023-05-19T05:50:25;11.90;99.90
11152;DHT22;5630;49.342;10.802;2023-05-19T05:52:52;11.80;99.90
11152;DHT22;5630;49.342;10.802;2023-05-19T05:55:19;11.70;99.90
11152;DHT22;5630;49.342;10.802;2023-05-19T05:57:45;11.60;99.90
11152;DHT22;5630;49.342;10.802;2023-05-19T06:00:13;11.60;99.90
11152;DHT22;5630;49.342;10.802;2023-05-19T06:02:45;11.60;99.90
11152;DHT22;5630;49.342;10.802;2023-05-19T06:05:11;11.60;99.90
11152;DHT22;5630;49.342;10.802;2023-05-19T06:07:38;11.60;99.90
11152;DHT22;5630;49.342;10.802;2023-05-19T06:10:05;11.60;99.90
11152;DHT22;5630;49.342;10.802;2023-05-19T06:12:32;11.60;99.90
11152;DHT22;5630;49.342;10.802;2023-05-19T06:14:58;11.60;99.90
11152;DHT22;5630;49.342;10.802;2023-05-19T06:17:24;11.60;99.90
11152;DHT22;5630;49.342;10.802;2023-05-19T06:19:49;11.70;99.90
11152;DHT22;5630;49.342;10.802;2023-05-19T06:22:15;12.20;99.90
11152;DHT22;5630;49.342;10.802;2023-05-19T06:24:40;12.70;99.90
11152;DHT22;5630;49.342;10.802;2023-05-19T06:27:06;13.10;99.90
11152;DHT22;5630;49.342;10.802;2023-05-19T06:29:32;13.60;99.90
11152;DHT22;5630;49.342;10.802;2023-05-19T06:31:58;13.90;99.90
11152;DHT22;5630;49.342;10.802;2023-05-19T06:34:23;14.20;99.90
11152;DHT22;5630;49.342;10.802;2023-05-19T06:36:49;14.20;99.90
11152;DHT22;5630;49.342;10.802;2023-05-19T06:39:14;14.40;99.90
11152;DHT22;5630;49.342;10.802;2023-05-19T06:41:40;14.40;99.90
11152;DHT22;5630;49.342;10.802;2023-05-19T06:44:06;14.30;99.90
11152;DHT22;5630;49.342;10.802;2023-05-19T06:46:33;14.10;99.90
11152;DHT22;5630;49.342;10.802;2023-05-19T06:48:59;13.90;99.90
11152;DHT22;5630;49.342;10.802;2023-05-19T06:51:24;13.90;99.90
11152;DHT22;5630;49.342;10.802;2023-05-19T06:53:50;13.90;99.90
11152;DHT22;5630;49.342;10.802;2023-05-19T06:56:16;13.90;99.90
11152;DHT22;5630;49.342;10.802;2023-05-19T06:58:42;13.80;99.90
11152;DHT22;5630;49.342;10.802;2023-05-19T07:01:08;13.70;99.90
11152;DHT22;5630;49.342;10.802;2023-05-19T07:03:34;13.70;99.90
11152;DHT22;5630;49.342;10.802;2023-05-19T07:06:00;13.60;99.90
11152;DHT22;5630;49.342;10.802;2023-05-19T07:08:25;13.70;99.90
11152;DHT22;5630;49.342;10.802;2023-05-19T07:10:52;13.70;99.90
11152;DHT22;5630;49.342;10.802;2023-05-19T07:13:18;13.80;99.90
11152;DHT22;5630;49.342;10.802;2023-05-19T07:15:43;13.90;99.90
11152;DHT22;5630;49.342;10.802;2023-05-19T07:18:09;14.00;99.90
11152;DHT22;5630;49.342;10.802;2023-05-19T07:20:34;14.00;99.90
11152;DHT22;5630;49.342;10.802;2023-05-19T07:23:00;14.00;99.90
11152;DHT22;5630;49.342;10.802;2023-05-19T07:25:27;14.10;99.90
11152;DHT22;5630;49.342;10.802;2023-05-19T07:27:55;14.10;99.90
11152;DHT22;5630;49.342;10.802;2023-05-19T07:30:20;14.20;99.90
11152;DHT22;5630;49.342;10.802;2023-05-19T07:32:46;14.30;99.90
11152;DHT22;5630;49.342;10.802;2023-05-19T07:35:11;14.30;99.90
11152;DHT22;5630;49.342;10.802;2023-05-19T07:37:37;14.30;99.90
11152;DHT22;5630;49.342;10.802;2023-05-19T07:40:03;14.30;99.90
11152;DHT22;5630;49.342;10.802;2023-05-19T07:42:29;14.40;99.90
11152;DHT22;5630;49.342;10.802;2023-05-19T07:44:54;14.40;99.90
11152;DHT22;5630;49.342;10.802;2023-05-19T07:47:20;14.40;99.90
11152;DHT22;5630;49.342;10.802;2023-05-19T07:49:45;14.60;99.90
11152;DHT22;5630;49.342;10.802;2023-05-19T07:52:11;14.70;99.90
11152;DHT22;5630;49.342;10.802;2023-05-19T07:54:37;14.90;99.90
11152;DHT22;5630;49.342;10.802;2023-05-19T07:57:02;14.90;99.90
11152;DHT22;5630;49.342;10.802;2023-05-19T07:59:28;14.90;99.90
11152;DHT22;5630;49.342;10.802;2023-05-19T08:01:54;14.90;99.90
11152;DHT22;5630;49.342;10.802;2023-05-19T08:04:19;15.20;99.90
11152;DHT22;5630;49.342;10.802;2023-05-19T08:06:45;15.40;99.90
11152;DHT22;5630;49.342;10.802;2023-05-19T08:09:10;15.50;99.90
11152;DHT22;5630;49.342;10.802;2023-05-19T08:11:36;15.50;99.90
11152;DHT22;5630;49.342;10.802;2023-05-19T08:14:02;15.70;99.90
11152;DHT22;5630;49.342;10.802;2023-05-19T08:16:28;15.80;99.90
11152;DHT22;5630;49.342;10.802;2023-05-19T08:18:53;16.00;99.90
11152;DHT22;5630;49.342;10.802;2023-05-19T08:21:19;16.10;99.90
11152;DHT22;5630;49.342;10.802;2023-05-19T08:23:45;16.20;99.90
11152;DHT22;5630;49.342;10.802;2023-05-19T08:26:11;16.30;99.90
11152;DHT22;5630;49.342;10.802;2023-05-19T08:28:37;16.10;99.90
11152;DHT22;5630;49.342;10.802;2023-05-19T08:31:02;16.30;99.90
11152;DHT22;5630;49.342;10.802;2023-05-19T08:33:28;16.20;99.90
11152;DHT22;5630;49.342;10.802;2023-05-19T08:35:55;16.20;99.90
11152;DHT22;5630;49.342;10.802;2023-05-19T08:38:22;16.20;99.90
11152;DHT22;5630;49.342;10.802;2023-05-19T08:40:48;16.30;99.90
11152;DHT22;5630;49.342;10.802;2023-05-19T08:43:14;16.40;99.90
11152;DHT22;5630;49.342;10.802;2023-05-19T08:45:42;16.40;99.90
11152;DHT22;5630;49.342;10.802;2023-05-19T08:48:09;16.50;99.90
11152;DHT22;5630;49.342;10.802;2023-05-19T08:50:38;16.30;99.90
11152;DHT22;5630;49.342;10.802;2023-05-19T08:53:17;16.10;99.90
11152;DHT22;5630;49.342;10.802;2023-05-19T08:56:07;15.70;99.90
11152;DHT22;5630;49.342;10.802;2023-05-19T08:58:37;15.60;99.90
11152;DHT22;5630;49.342;10.802;2023-05-19T09:01:03;15.70;99.90
11152;DHT22;5630;49.342;10.802;2023-05-19T09:03:31;15.50;99.90
11152;DHT22;5630;49.342;10.802;2023-05-19T09:06:04;15.50;99.90
11152;DHT22;5630;49.342;10.802;2023-05-19T09:08:30;15.60;99.90
11152;DHT22;5630;49.342;10.802;2023-05-19T09:10:56;15.60;99.90
11152;DHT22;5630;49.342;10.802;2023-05-19T09:13:21;15.60;99.90
11152;DHT22;5630;49.342;10.802;2023-05-19T09:15:49;15.80;99.90
11152;DHT22;5630;49.342;10.802;2023-05-19T09:18:16;15.70;99.90
11152;DHT22;5630;49.342;10.802;2023-05-19T09:20:43;15.90;99.90
11152;DHT22;5630;49.342;10.802;2023-05-19T09:23:13;15.70;99.90
11152;DHT22;5630;49.342;10.802;2023-05-19T09:25:49;15.80;99.90
11152;DHT22;5630;49.342;10.802;2023-05-19T09:28:32;15.90;99.90
11152;DHT22;5630;49.342;10.802;2023-05-19T09:31:05;16.00;99.90
11152;DHT22;5630;49.342;10.802;2023-05-19T09:33:35;15.90;99.90
11152;DHT22;5630;49.342;10.802;2023-05-19T09:36:02;15.90;99.90
11152;DHT22;5630;49.342;10.802;2023-05-19T09:38:29;16.00;99.90
11152;DHT22;5630;49.342;10.802;2023-05-19T09:40:56;16.10;99.90
11152;DHT22;5630;49.342;10.802;2023-05-19T09:43:22;16.00;99.90
11152;DHT22;5630;49.342;10.802;2023-05-19T09:45:54;16.00;99.90
11152;DHT22;5630;49.342;10.802;2023-05-19T09:48:20;16.00;99.90
11152;DHT22;5630;49.342;10.802;2023-05-19T09:50:47;16.00;99.90
11152;DHT22;5630;49.342;10.802;2023-05-19T09:53:13;16.00;99.90
11152;DHT22;5630;49.342;10.802;2023-05-19T09:55:39;16.00;99.90
11152;DHT22;5630;49.342;10.802;2023-05-19T09:58:06;16.00;99.90
11152;DHT22;5630;49.342;10.802;2023-05-19T10:00:31;15.90;99.90
11152;DHT22;5630;49.342;10.802;2023-05-19T10:02:58;15.90;99.90
11152;DHT22;5630;49.342;10.802;2023-05-19T10:05:26;16.00;99.90
11152;DHT22;5630;49.342;10.802;2023-05-19T10:07:53;16.10;99.90
11152;DHT22;5630;49.342;10.802;2023-05-19T10:10:20;16.10;99.90
11152;DHT22;5630;49.342;10.802;2023-05-19T10:12:47;16.20;99.90
11152;DHT22;5630;49.342;10.802;2023-05-19T10:15:15;16.10;99.90
11152;DHT22;5630;49.342;10.802;2023-05-19T10:17:42;16.00;99.90
11152;DHT22;5630;49.342;10.802;2023-05-19T10:20:13;16.00;99.90
11152;DHT22;5630;49.342;10.802;2023-05-19T10:22:40;16.00;99.90
11152;DHT22;5630;49.342;10.802;2023-05-19T10:25:07;16.10;99.90
11152;DHT22;5630;49.342;10.802;2023-05-19T10:27:39;16.20;99.90
11152;DHT22;5630;49.342;10.802;2023-05-19T10:30:12;16.30;99.90
11152;DHT22;5630;49.342;10.802;2023-05-19T10:32:40;16.30;99.90
11152;DHT22;5630;49.342;10.802;2023-05-19T10:43:48;16.30;99.90
11152;DHT22;5630;49.342;10.802;2023-05-19T10:46:17;16.30;99.90
11152;DHT22;5630;49.342;10.802;2023-05-19T10:48:47;16.40;99.90
11152;DHT22;5630;49.342;10.802;2023-05-19T10:51:13;16.30;99.90
11152;DHT22;5630;49.342;10.802;2023-05-19T10:53:40;16.40;99.90
11152;DHT22;5630;49.342;10.802;2023-05-19T10:56:10;16.50;99.90
11152;DHT22;5630;49.342;10.802;2023-05-19T11:01:18;16.70;99.90
11152;DHT22;5630;49.342;10.802;2023-05-19T11:03:46;16.80;99.90
11152;DHT22;5630;49.342;10.802;2023-05-19T11:06:29;16.80;99.90
11152;DHT22;5630;49.342;10.802;2023-05-19T11:09:00;16.90;99.90
11152;DHT22;5630;49.342;10.802;2023-05-19T11:14:11;17.00;99.90
11152;DHT22;5630;49.342;10.802;2023-05-19T11:16:40;17.10;99.90
11152;DHT22;5630;49.342;10.802;2023-05-19T11:19:07;17.20;99.90
11152;DHT22;5630;49.342;10.802;2023-05-19T11:21:52;17.20;99.90
11152;DHT22;5630;49.342;10.802;2023-05-19T11:27:26;17.40;99.90
11152;DHT22;5630;49.342;10.802;2023-05-19T11:29:53;17.50;99.90
11152;DHT22;5630;49.342;10.802;2023-05-19T11:32:20;17.40;99.90
11152;DHT22;5630;49.342;10.802;2023-05-19T11:34:47;17.40;99.90
11152;DHT22;5630;49.342;10.802;2023-05-19T11:37:14;17.50;99.90
11152;DHT22;5630;49.342;10.802;2023-05-19T11:39:40;17.60;99.90
11152;DHT22;5630;49.342;10.802;2023-05-19T11:42:08;17.50;99.90
11152;DHT22;5630;49.342;10.802;2023-05-19T11:44:35;17.70;99.90
11152;DHT22;5630;49.342;10.802;2023-05-19T11:47:00;17.90;99.90
11152;DHT22;5630;49.342;10.802;2023-05-19T11:49:27;18.30;99.90
11152;DHT22;5630;49.342;10.802;2023-05-19T11:51:53;18.60;99.90
11152;DHT22;5630;49.342;10.802;2023-05-19T11:54:19;18.70;99.90
11152;DHT22;5630;49.342;10.802;2023-05-19T11:56:45;18.90;99.90
11152;DHT22;5630;49.342;10.802;2023-05-19T11:59:11;19.30;99.90
11152;DHT22;5630;49.342;10.802;2023-05-19T12:01:37;19.30;99.90
11152;DHT22;5630;49.342;10.802;2023-05-19T12:04:07;19.70;99.90
11152;DHT22;5630;49.342;10.802;2023-05-19T12:06:34;19.80;99.90
11152;DHT22;5630;49.342;10.802;2023-05-19T12:09:01;19.90;99.90
11152;DHT22;5630;49.342;10.802;2023-05-19T12:11:27;20.00;99.90
11152;DHT22;5630;49.342;10.802;2023-05-19T12:14:00;20.00;99.90
11152;DHT22;5630;49.342;10.802;2023-05-19T12:16:33;19.90;99.90
11152;DHT22;5630;49.342;10.802;2023-05-19T12:18:58;19.90;99.90
11152;DHT22;5630;49.342;10.802;2023-05-19T12:21:24;20.00;99.90
11152;DHT22;5630;49.342;10.802;2023-05-19T12:23:50;20.20;99.90
11152;DHT22;5630;49.342;10.802;2023-05-19T12:26:15;20.40;99.90
11152;DHT22;5630;49.342;10.802;2023-05-19T12:28:44;20.60;99.90
11152;DHT22;5630;49.342;10.802;2023-05-19T12:31:10;20.70;99.90
11152;DHT22;5630;49.342;10.802;2023-05-19T12:33:36;20.80;99.90
11152;DHT22;5630;49.342;10.802;2023-05-19T12:36:02;20.70;99.90
11152;DHT22;5630;49.342;10.802;2023-05-19T12:38:27;20.80;99.90
11152;DHT22;5630;49.342;10.802;2023-05-19T12:40:57;20.80;99.90
11152;DHT22;5630;49.342;10.802;2023-05-19T12:43:23;20.70;99.90
11152;DHT22;5630;49.342;10.802;2023-05-19T12:45:49;20.70;99.90
11152;DHT22;5630;49.342;10.802;2023-05-19T12:48:14;20.80;99.90
11152;DHT22;5630;49.342;10.802;2023-05-19T12:50:41;20.70;99.90
11152;DHT22;5630;49.342;10.802;2023-05-19T12:53:10;20.70;99.90
11152;DHT22;5630;49.342;10.802;2023-05-19T12:55:43;20.90;99.90
11152;DHT22;5630;49.342;10.802;2023-05-19T12:58:10;21.00;99.90
11152;DHT22;5630;49.342;10.802;2023-05-19T13:00:44;21.20;99.90
11152;DHT22;5630;49.342;10.802;2023-05-19T13:03:15;21.30;99.90
11152;DHT22;5630;49.342;10.802;2023-05-19T13:05:44;21.40;99.90
11152;DHT22;5630;49.342;10.802;2023-05-19T13:08:16;21.60;99.90
11152;DHT22;5630;49.342;10.802;2023-05-19T13:10:44;21.70;99.90
11152;DHT22;5630;49.342;10.802;2023-05-19T13:13:10;21.80;99.90
11152;DHT22;5630;49.342;10.802;2023-05-19T13:15:37;21.70;99.90
11152;DHT22;5630;49.342;10.802;2023-05-19T13:18:06;21.80;99.90
11152;DHT22;5630;49.342;10.802;2023-05-19T13:20:32;21.80;99.90
11152;DHT22;5630;49.342;10.802;2023-05-19T13:22:58;21.90;99.90
11152;DHT22;5630;49.342;10.802;2023-05-19T13:25:25;21.90;99.90
11152;DHT22;5630;49.342;10.802;2023-05-19T13:27:51;21.90;99.90
11152;DHT22;5630;49.342;10.802;2023-05-19T13:32:46;22.20;99.90
11152;DHT22;5630;49.342;10.802;2023-05-19T13:35:13;22.30;99.90
11152;DHT22;5630;49.342;10.802;2023-05-19T13:37:40;22.10;99.90
11152;DHT22;5630;49.342;10.802;2023-05-19T13:40:06;22.20;99.90
11152;DHT22;5630;49.342;10.802;2023-05-19T13:42:33;22.30;99.90
11152;DHT22;5630;49.342;10.802;2023-05-19T13:44:59;22.10;99.90
11152;DHT22;5630;49.342;10.802;2023-05-19T13:47:25;21.90;99.90
11152;DHT22;5630;49.342;10.802;2023-05-19T13:49:51;22.10;99.90
11152;DHT22;5630;49.342;10.802;2023-05-19T13:52:17;22.10;99.90
11152;DHT22;5630;49.342;10.802;2023-05-19T13:54:43;22.00;99.90
11152;DHT22;5630;49.342;10.802;2023-05-19T13:57:09;21.90;99.90
11152;DHT22;5630;49.342;10.802;2023-05-19T13:59:36;21.50;99.90
11152;DHT22;5630;49.342;10.802;2023-05-19T14:02:01;21.20;99.90
11152;DHT22;5630;49.342;10.802;2023-05-19T14:04:27;21.20;99.90
11152;DHT22;5630;49.342;10.802;2023-05-19T14:06:53;21.00;99.90
11152;DHT22;5630;49.342;10.802;2023-05-19T14:09:19;20.90;99.90
11152;DHT22;5630;49.342;10.802;2023-05-19T14:11:46;20.90;99.90
11152;DHT22;5630;49.342;10.802;2023-05-19T14:14:11;20.80;99.90
11152;DHT22;5630;49.342;10.802;2023-05-19T14:16:38;20.80;99.90
11152;DHT22;5630;49.342;10.802;2023-05-19T14:19:04;20.70;99.90
11152;DHT22;5630;49.342;10.802;2023-05-19T14:21:29;20.60;99.90
11152;DHT22;5630;49.342;10.802;2023-05-19T14:23:55;20.80;99.90
11152;DHT22;5630;49.342;10.802;2023-05-19T14:26:21;20.90;99.90
11152;DHT22;5630;49.342;10.802;2023-05-19T14:28:46;20.90;99.90
11152;DHT22;5630;49.342;10.802;2023-05-19T14:31:13;21.00;99.90
11152;DHT22;5630;49.342;10.802;2023-05-19T14:33:40;21.10;99.90
11152;DHT22;5630;49.342;10.802;2023-05-19T14:36:06;21.10;99.90
11152;DHT22;5630;49.342;10.802;2023-05-19T14:38:32;21.20;99.90
11152;DHT22;5630;49.342;10.802;2023-05-19T14:40:58;21.20;99.90
11152;DHT22;5630;49.342;10.802;2023-05-19T14:43:23;21.10;99.90
11152;DHT22;5630;49.342;10.802;2023-05-19T14:45:49;21.00;99.90
11152;DHT22;5630;49.342;10.802;2023-05-19T14:48:14;21.10;99.90
11152;DHT22;5630;49.342;10.802;2023-05-19T14:50:40;21.00;99.90
11152;DHT22;5630;49.342;10.802;2023-05-19T14:53:06;21.00;99.90
11152;DHT22;5630;49.342;10.802;2023-05-19T14:55:31;21.00;99.90
11152;DHT22;5630;49.342;10.802;2023-05-19T14:57:57;21.00;99.90
11152;DHT22;5630;49.342;10.802;2023-05-19T15:00:23;21.10;99.90
11152;DHT22;5630;49.342;10.802;2023-05-19T15:02:51;21.10;99.90
11152;DHT22;5630;49.342;10.802;2023-05-19T15:05:16;20.90;99.90
11152;DHT22;5630;49.342;10.802;2023-05-19T15:07:42;20.70;99.90
11152;DHT22;5630;49.342;10.802;2023-05-19T15:10:08;20.70;99.90
11152;DHT22;5630;49.342;10.802;2023-05-19T15:12:33;20.70;99.90
11152;DHT22;5630;49.342;10.802;2023-05-19T15:14:59;20.70;99.90
11152;DHT22;5630;49.342;10.802;2023-05-19T15:17:25;20.60;99.90
11152;DHT22;5630;49.342;10.802;2023-05-19T15:19:50;20.60;99.90
11152;DHT22;5630;49.342;10.802;2023-05-19T15:22:16;20.60;99.90
11152;DHT22;5630;49.342;10.802;2023-05-19T15:24:41;20.50;99.90
11152;DHT22;5630;49.342;10.802;2023-05-19T15:27:07;20.40;99.90
11152;DHT22;5630;49.342;10.802;2023-05-19T15:29:33;20.40;99.90
11152;DHT22;5630;49.342;10.802;2023-05-19T15:31:59;20.40;99.90
11152;DHT22;5630;49.342;10.802;2023-05-19T15:34:25;20.50;99.90
11152;DHT22;5630;49.342;10.802;2023-05-19T15:36:51;20.60;99.90
11152;DHT22;5630;49.342;10.802;2023-05-19T15:39:16;20.60;99.90
11152;DHT22;5630;49.342;10.802;2023-05-19T15:41:42;20.60;99.90
11152;DHT22;5630;49.342;10.802;2023-05-19T15:44:07;20.50;99.90
11152;DHT22;5630;49.342;10.802;2023-05-19T15:46:33;20.40;99.90
11152;DHT22;5630;49.342;10.802;2023-05-19T15:48:59;20.30;99.90
11152;DHT22;5630;49.342;10.802;2023-05-19T15:51:25;20.30;99.90
11152;DHT22;5630;49.342;10.802;2023-05-19T15:53:50;20.30;99.90
11152;DHT22;5630;49.342;10.802;2023-05-19T15:56:16;20.20;99.90
11152;DHT22;5630;49.342;10.802;2023-05-19T15:58:43;20.10;99.90
11152;DHT22;5630;49.342;10.802;2023-05-19T16:01:09;20.00;99.90
11152;DHT22;5630;49.342;10.802;2023-05-19T16:03:35;20.00;99.90
11152;DHT22;5630;49.342;10.802;2023-05-19T16:06:01;20.00;99.90
11152;DHT22;5630;49.342;10.802;2023-05-19T16:08:27;19.90;99.90